Latest Weather Observations for Lord Howe Island Windy Point

IDN60801

Issued at 5:52 pm EST Friday 1 July 2022 (issued every 10 minutes, with the page automatically refreshed every 10 minutes)

About weather observations | Map of weather stations | Latest weather observations for NSW | Other Formats
Station Details ID: 200715 Name: LORD HOWE ISLAND WINDY POINT Lat: -31.54 Lon: 159.07 Height: 4.0 m
Data from the previous 72 hours. | See also: Recent months at Lord Howe Island Windy Point
Date/Time
EST
Temp
°C
App
Temp
°C
Dew
Point
°C
Rel
Hum
%
Delta-T
°C
Wind Press
QNH
hPa
Press
MSL
hPa
Rain since
9am
mm
Dir  Spd
km/h
Gust
km/h
Spd
kts
Gust
kts
01/05:30pm - - - - - CALM 0 0 0 0 - - -
01/05:00pm - - - - - CALM 0 0 0 0 - - -
01/04:30pm - - - - - CALM 0 0 0 0 - - -
01/04:00pm - - - - - CALM 0 0 0 0 - - -
01/03:30pm - - - - - S 6 7 3 4 - - -
01/03:00pm - - - - - SSW 2 6 1 3 - - -
01/02:30pm - - - - - SW 4 9 2 5 - - -
01/02:00pm - - - - - SW 9 11 5 6 - - -
01/01:30pm - - - - - SW 4 7 2 4 - - -
01/01:00pm - - - - - SW 7 9 4 5 - - -
01/12:30pm - - - - - SSW 7 11 4 6 - - -
01/12:00pm - - - - - SW 6 9 3 5 - - -
01/11:30am - - - - - SW 11 15 6 8 - - -
01/11:00am - - - - - SW 9 13 5 7 - - -
01/10:30am - - - - - SW 13 15 7 8 - - -
01/10:00am - - - - - SSW 13 15 7 8 - - -
01/09:30am - - - - - SSW 19 20 10 11 - - -
01/09:00am - - - - - SW 19 22 10 12 - - -
01/08:30am - - - - - SW 19 24 10 13 - - -
01/08:00am - - - - - WSW 20 24 11 13 - - -
01/07:30am - - - - - WSW 19 24 10 13 - - -
01/07:00am - - - - - WSW 20 24 11 13 - - -
01/06:30am - - - - - WSW 19 20 10 11 - - -
01/06:00am - - - - - SW 19 22 10 12 - - -
01/05:30am - - - - - WSW 20 24 11 13 - - -
01/05:00am - - - - - W 24 28 13 15 - - -
01/04:30am - - - - - W 24 30 13 16 - - -
01/04:00am - - - - - W 22 30 12 16 - - -
01/03:30am - - - - - SW 19 22 10 12 - - -
01/03:00am - - - - - SW 24 26 13 14 - - -
01/02:30am - - - - - WSW 35 43 19 23 - - -
01/02:23am - - - - - W 24 41 13 22 - - -
01/02:00am - - - - - NW 17 20 9 11 - - -
01/01:30am - - - - - NW 15 20 8 11 - - -
01/01:00am - - - - - NW 17 24 9 13 - - -
01/12:30am - - - - - NNW 17 22 9 12 - - -
01/12:00am - - - - - NNW 11 17 6 9 - - -
 
Date/Time
EST
Temp
°C
App
Temp
°C
Dew
Point
°C
Rel
Hum
%
Delta-T
°C
Wind Press
QNH
hPa
Press
MSL
hPa
Rain since
9am
mm
Dir  Spd
km/h
Gust
km/h
Spd
kts
Gust
kts
30/11:30pm - - - - - NW 17 26 9 14 - - -
30/11:00pm - - - - - NW 13 20 7 11 - - -
30/10:30pm - - - - - NW 11 20 6 11 - - -
30/10:00pm - - - - - NW 11 19 6 10 - - -
30/09:30pm - - - - - N 4 9 2 5 - - -
30/09:00pm - - - - - NW 15 20 8 11 - - -
30/08:30pm - - - - - NW 7 15 4 8 - - -
30/08:00pm - - - - - NNE 6 11 3 6 - - -
30/07:30pm - - - - - NNE 7 11 4 6 - - -
30/07:00pm - - - - - N 7 15 4 8 - - -
30/06:30pm - - - - - NNW 7 11 4 6 - - -
30/06:00pm - - - - - N 6 13 3 7 - - -
30/05:30pm - - - - - NNE 9 13 5 7 - - -
30/05:00pm - - - - - NNE 9 15 5 8 - - -
30/04:30pm - - - - - NE 13 20 7 11 - - -
30/04:00pm - - - - - NE 7 11 4 6 - - -
30/03:30pm - - - - - NNE 9 17 5 9 - - -
30/03:00pm - - - - - NE 13 17 7 9 - - -
30/02:30pm - - - - - N 7 13 4 7 - - -
30/02:00pm - - - - - NNE 11 13 6 7 - - -
30/01:30pm - - - - - NNE 7 15 4 8 - - -
30/01:00pm - - - - - NNE 13 17 7 9 - - -
30/12:30pm - - - - - NNW 9 13 5 7 - - -
30/12:00pm - - - - - NW 6 11 3 6 - - -
30/11:30am - - - - - N 7 13 4 7 - - -
30/11:00am - - - - - ENE 4 9 2 5 - - -
30/10:30am - - - - - E 9 13 5 7 - - -
30/10:00am - - - - - E 6 11 3 6 - - -
30/09:30am - - - - - NNE 7 15 4 8 - - -
30/09:00am - - - - - N 6 13 3 7 - - -
30/08:30am - - - - - N 7 13 4 7 - - -
30/08:00am - - - - - N 2 7 1 4 - - -
30/07:30am - - - - - NE 11 17 6 9 - - -
30/07:00am - - - - - NNE 9 13 5 7 - - -
30/06:30am - - - - - NNE 6 9 3 5 - - -
30/06:00am - - - - - NE 9 15 5 8 - - -
30/05:30am - - - - - NNE 9 13 5 7 - - -
30/05:00am - - - - - ENE 9 17 5 9 - - -
30/04:30am - - - - - ENE 11 19 6 10 - - -
30/04:00am - - - - - NE 7 11 4 6 - - -
30/03:30am - - - - - NNE 7 9 4 5 - - -
30/03:00am - - - - - NNE 7 9 4 5 - - -
30/02:30am - - - - - NE 9 13 5 7 - - -
30/02:00am - - - - - NE 6 11 3 6 - - -
30/01:30am - - - - - ENE 11 17 6 9 - - -
30/01:00am - - - - - NE 9 13 5 7 - - -
30/12:30am - - - - - ENE 13 22 7 12 - - -
30/12:00am - - - - - E 17 22 9 12 - - -
 
Date/Time
EST
Temp
°C
App
Temp
°C
Dew
Point
°C
Rel
Hum
%
Delta-T
°C
Wind Press
QNH
hPa
Press
MSL
hPa
Rain since
9am
mm
Dir  Spd
km/h
Gust
km/h
Spd
kts
Gust
kts
29/11:30pm - - - - - E 17 20 9 11 - - -
29/11:00pm - - - - - E 7 17 4 9 - - -
29/10:30pm - - - - - E 15 20 8 11 - - -
29/10:00pm - - - - - E 6 13 3 7 - - -
29/09:30pm - - - - - ESE 15 24 8 13 - - -
29/09:00pm - - - - - ESE 20 30 11 16 - - -
29/08:30pm - - - - - ESE 11 15 6 8 - - -
29/08:00pm - - - - - E 15 26 8 14 - - -
29/07:30pm - - - - - E 17 24 9 13 - - -
29/07:00pm - - - - - ESE 15 24 8 13 - - -
29/06:30pm - - - - - ESE 15 26 8 14 - - -
29/06:00pm - - - - - ESE 15 20 8 11 - - -
29/05:30pm - - - - - SE 11 17 6 9 - - -
29/05:00pm - - - - - ESE 15 22 8 12 - - -
29/04:30pm - - - - - E 17 26 9 14 - - -
29/04:00pm - - - - - ESE 17 26 9 14 - - -
29/03:30pm - - - - - ESE 19 32 10 17 - - -
29/03:00pm - - - - - ESE 26 33 14 18 - - -
29/02:30pm - - - - - ESE 19 35 10 19 - - -
29/02:00pm - - - - - ESE 22 35 12 19 - - -
29/01:30pm - - - - - ESE 24 32 13 17 - - -
29/01:00pm - - - - - ESE 26 37 14 20 - - -
29/12:30pm - - - - - ESE 26 43 14 23 - - -
29/12:00pm - - - - - ESE 24 35 13 19 - - -
29/11:30am - - - - - ESE 28 52 15 28 - - -
29/11:23am - - - - - E 30 52 16 28 - - -
29/11:00am - - - - - E 28 44 15 24 - - -
29/10:55am - - - - - ESE 28 46 15 25 - - -
29/10:30am - - - - - ESE 24 43 13 23 - - -
29/10:00am - - - - - ESE 28 43 15 23 - - -
29/09:50am - - - - - ESE 28 48 15 26 - - -
29/09:30am - - - - - ESE 20 44 11 24 - - -
29/09:20am - - - - - SSE 26 48 14 26 - - -
29/09:00am - - - - - S 15 37 8 20 - - -
29/08:30am - - - - - SE 13 35 7 19 - - -
29/08:00am - - - - - ESE 20 37 11 20 - - -
29/07:30am - - - - - SE 13 24 7 13 - - -
29/07:08am - - - - - SSW 28 50 15 27 - - -
29/07:00am - - - - - SSW 24 57 13 31 - - -
29/06:30am - - - - - SSW 26 43 14 23 - - -
29/06:22am - - - - - SSW 24 43 13 23 - - -
29/06:00am - - - - - SSE 15 28 8 15 - - -
29/05:30am - - - - - SE 17 37 9 20 - - -
29/05:00am - - - - - SW 19 41 10 22 - - -
29/04:30am - - - - - SW 17 33 9 18 - - -
29/04:00am - - - - - SSE 13 28 7 15 - - -
29/03:36am - - - - - SSW 24 54 13 29 - - -
29/03:30am - - - - - SSW 26 54 14 29 - - -
29/03:03am - - - - - SSW 28 57 15 31 - - -
29/03:00am - - - - - SW 24 57 13 31 - - -
29/02:42am - - - - - SW 28 56 15 30 - - -
29/02:30am - - - - - SSW 26 57 14 31 - - -
29/02:08am - - - - - SW 20 54 11 29 - - -
29/02:00am - - - - - SW 24 39 13 21 - - -
29/01:30am - - - - - SW 24 48 13 26 - - -
29/01:00am - - - - - WSW 22 57 12 31 - - -
29/12:36am - - - - - WSW 17 46 9 25 - - -
29/12:30am - - - - - SSW 20 39 11 21 - - -
29/12:15am - - - - - SSW 24 52 13 28 - - -
29/12:14am - - - - - S 24 52 13 28 - - -
29/12:00am - - - - - SSW 17 67 9 36 - - -
 
Date/Time
EST
Temp
°C
App
Temp
°C
Dew
Point
°C
Rel
Hum
%
Delta-T
°C
Wind Press
QNH
hPa
Press
MSL
hPa
Rain since
9am
mm
Dir  Spd
km/h
Gust
km/h
Spd
kts
Gust
kts
28/11:30pm - - - - - SSW 22 50 12 27 - - -
28/11:29pm - - - - - SSW 22 50 12 27 - - -
28/11:17pm - - - - - SSW 30 56 16 30 - - -
28/11:07pm - - - - - SSW 35 76 19 41 - - -
28/11:03pm - - - - - S 35 76 19 41 - - -
28/11:00pm - - - - - SSW 37 59 20 32 - - -
28/10:44pm - - - - - S 32 70 17 38 - - -
28/10:42pm - - - - - S 30 57 16 31 - - -
28/10:30pm - - - - - SSW 43 67 23 36 - - -
28/10:00pm - - - - - S 30 61 16 33 - - -
28/09:56pm - - - - - S 33 76 18 41 - - -
28/09:30pm - - - - - SSW 44 74 24 40 - - -
28/09:00pm - - - - - SSW 39 65 21 35 - - -
28/08:30pm - - - - - SSW 43 70 23 38 - - -
28/08:00pm - - - - - SSW 46 82 25 44 - - -
28/07:30pm - - - - - S 44 76 24 41 - - -
28/07:18pm - - - - - S 50 89 27 48 - - -
28/07:00pm - - - - - S 44 65 24 35 - - -
28/06:30pm - - - - - S 46 67 25 36 - - -
28/06:00pm - - - - - S 48 67 26 36 - - -

Other formats

Comma delimited format used in spreadsheet applications
http://www.bom.gov.au/fwo/IDN60801/IDN60801.95995.axf

JavaScript Object Notation format (JSON) in row-major order
http://www.bom.gov.au/fwo/IDN60801/IDN60801.95995.json

Data quality

Most of these data are generated automatically and are frequently updated. Quality checks on data are not normally performed. It is possible for incorrect values to appear. Refer to information at About Latest Weather Observations and please check the disclaimer before using these data.